Time;durP1;ratioP1;P1;durP2;ratioP2;P2;SDS_P1;SDS_P2;PMS_P1;PMS_P2;Temp;Humidity;BMP_temperature;BMP_pressure;BME280_temperature;BME280_humidity;BME280_pressure;Samples;Min_cycle;Max_cycle;Signal;HPM_P1;HPM_P2
2022/06/27 00:02:09;;;;;;;10.82;9.68;;;16.60;99.90;;;;;;5145181;27;20428;-61
2022/06/27 00:04:34;;;;;;;13.70;10.63;;;16.60;99.90;;;;;;5148144;27;20042;-61
2022/06/27 00:07:00;;;;;;;16.77;10.77;;;16.60;99.90;;;;;;5142213;27;20402;-61
2022/06/27 00:09:26;;;;;;;16.50;11.60;;;16.60;99.90;;;;;;5149958;27;20077;-61
2022/06/27 00:11:51;;;;;;;13.48;10.38;;;16.50;99.90;;;;;;5151117;27;20412;-60
2022/06/27 00:14:17;;;;;;;14.02;10.23;;;16.60;99.90;;;;;;5146140;27;20035;-61
2022/06/27 00:16:42;;;;;;;16.52;11.02;;;16.60;99.90;;;;;;5147413;27;20046;-61
2022/06/27 00:19:08;;;;;;;14.40;11.75;;;16.60;99.90;;;;;;5153691;27;20205;-61
2022/06/27 00:21:33;;;;;;;14.13;11.07;;;16.60;99.90;;;;;;5127619;27;20047;-62
2022/06/27 00:23:59;;;;;;;15.40;11.50;;;16.50;99.90;;;;;;5147815;27;20049;-61
2022/06/27 00:26:25;;;;;;;16.08;11.25;;;16.50;99.90;;;;;;5144376;27;20031;-61
2022/06/27 00:28:50;;;;;;;11.75;10.13;;;16.50;99.90;;;;;;5143353;27;20493;-62
2022/06/27 00:31:16;;;;;;;14.48;10.82;;;16.60;99.90;;;;;;5148114;27;20161;-61
2022/06/27 00:33:41;;;;;;;12.27;9.52;;;16.60;99.90;;;;;;5143481;27;20038;-61
2022/06/27 00:36:07;;;;;;;14.57;10.50;;;16.60;99.90;;;;;;5146526;27;20058;-61
2022/06/27 00:38:33;;;;;;;13.57;10.50;;;16.60;99.90;;;;;;5151337;27;20039;-61
2022/06/27 00:40:59;;;;;;;14.48;10.52;;;16.70;99.90;;;;;;5152698;27;20035;-62
2022/06/27 00:43:24;;;;;;;14.18;10.85;;;16.70;99.90;;;;;;5130831;27;20042;-62
2022/06/27 00:45:50;;;;;;;16.85;11.18;;;16.60;99.90;;;;;;5146714;27;20045;-62
2022/06/27 00:48:15;;;;;;;14.13;11.05;;;16.60;99.90;;;;;;5151383;27;20042;-62
2022/06/27 00:50:41;;;;;;;14.55;11.80;;;16.60;99.90;;;;;;5150193;27;20630;-62
2022/06/27 00:53:08;;;;;;;15.30;11.05;;;16.60;99.90;;;;;;5151295;27;20045;-61
2022/06/27 00:55:34;;;;;;;14.10;11.88;;;16.60;99.90;;;;;;5131424;27;20046;-61
2022/06/27 00:58:01;;;;;;;13.98;11.27;;;16.70;99.90;;;;;;5114970;27;20026;-61
2022/06/27 01:00:26;;;;;;;16.35;11.63;;;16.70;99.90;;;;;;5141968;27;20031;-61
2022/06/27 01:02:52;;;;;;;14.10;11.48;;;16.60;99.90;;;;;;5146197;27;20042;-61
2022/06/27 01:05:18;;;;;;;13.70;11.45;;;16.70;99.90;;;;;;5145746;27;20043;-61
2022/06/27 01:07:44;;;;;;;14.15;11.25;;;16.70;99.90;;;;;;5148622;27;20030;-61
2022/06/27 01:10:10;;;;;;;12.88;11.10;;;16.60;99.90;;;;;;5142616;27;20086;-61
2022/06/27 01:12:39;;;;;;;13.13;10.65;;;16.70;99.90;;;;;;5128201;27;20034;-61
2022/06/27 01:15:06;;;;;;;16.98;12.05;;;16.70;99.90;;;;;;5149884;27;20030;-61
2022/06/27 01:17:32;;;;;;;18.15;12.30;;;16.70;99.90;;;;;;5146356;27;20042;-61
2022/06/27 01:19:58;;;;;;;17.23;13.15;;;16.70;99.90;;;;;;5151264;27;20038;-62
2022/06/27 01:22:23;;;;;;;17.00;12.40;;;16.60;99.90;;;;;;5148720;27;20647;-61
2022/06/27 01:24:49;;;;;;;15.32;12.35;;;16.60;99.90;;;;;;5131299;27;20034;-62
2022/06/27 01:27:15;;;;;;;16.23;13.13;;;16.60;99.90;;;;;;5145759;27;20039;-62
2022/06/27 01:29:40;;;;;;;17.52;12.75;;;16.60;99.90;;;;;;5140003;27;20039;-61
2022/06/27 01:32:07;;;;;;;17.05;13.45;;;16.50;99.90;;;;;;5145570;27;20109;-61
2022/06/27 01:34:34;;;;;;;18.77;12.75;;;16.50;99.90;;;;;;5146018;27;20166;-61
2022/06/27 01:37:00;;;;;;;19.52;13.25;;;16.60;99.90;;;;;;5148279;27;20030;-62
2022/06/27 01:39:27;;;;;;;17.20;12.90;;;16.60;99.90;;;;;;5148530;27;20033;-60
2022/06/27 01:41:54;;;;;;;17.35;13.07;;;16.60;99.90;;;;;;5143390;27;20035;-62
2022/06/27 01:44:23;;;;;;;15.98;12.73;;;16.60;99.90;;;;;;5145380;27;20052;-62
2022/06/27 01:47:01;;;;;;;15.88;12.32;;;16.60;99.90;;;;;;5148575;27;20051;-61
2022/06/27 01:49:31;;;;;;;16.23;12.43;;;16.60;99.90;;;;;;5147583;27;20038;-61
2022/06/27 01:51:58;;;;;;;21.15;13.63;;;16.60;99.90;;;;;;5149986;27;20078;-61
2022/06/27 01:54:24;;;;;;;15.40;12.57;;;16.60;99.90;;;;;;5113362;27;20062;-61
2022/06/27 01:56:51;;;;;;;15.10;12.70;;;16.60;99.90;;;;;;5150917;27;20470;-62
2022/06/27 01:59:19;;;;;;;18.35;14.23;;;16.60;99.90;;;;;;5143589;27;20042;-61
2022/06/27 02:01:45;;;;;;;16.63;13.52;;;16.60;99.90;;;;;;5147037;27;20397;-61
2022/06/27 02:04:12;;;;;;;18.88;13.85;;;16.60;99.90;;;;;;5146536;27;20134;-61
2022/06/27 02:06:39;;;;;;;19.83;13.77;;;16.60;99.90;;;;;;5150764;27;20399;-61
2022/06/27 02:09:07;;;;;;;18.88;15.38;;;16.60;99.90;;;;;;5144908;27;20074;-62
2022/06/27 02:11:35;;;;;;;19.90;14.38;;;16.60;99.90;;;;;;5138847;27;20030;-61
2022/06/27 02:14:01;;;;;;;21.75;15.50;;;16.60;99.90;;;;;;5149797;27;20061;-62
2022/06/27 02:16:27;;;;;;;19.70;14.48;;;16.50;99.90;;;;;;5149768;27;20035;-62
2022/06/27 02:18:53;;;;;;;21.85;15.23;;;16.50;99.90;;;;;;5150753;27;20038;-62
2022/06/27 02:21:25;;;;;;;18.90;13.98;;;16.50;99.90;;;;;;5147287;27;20038;-62
2022/06/27 02:23:53;;;;;;;17.92;15.15;;;16.50;99.90;;;;;;5144748;27;20478;-62
2022/06/27 02:26:23;;;;;;;21.55;15.13;;;16.50;99.90;;;;;;5147570;27;20035;-61
2022/06/27 02:28:50;;;;;;;21.52;15.52;;;16.60;99.90;;;;;;5144259;27;20091;-61
2022/06/27 02:31:15;;;;;;;20.33;14.55;;;16.50;99.90;;;;;;5144631;27;20045;-61
2022/06/27 02:33:44;;;;;;;20.10;14.57;;;16.50;99.90;;;;;;5148930;27;20023;-62
2022/06/27 02:36:15;;;;;;;20.30;15.20;;;16.50;99.90;;;;;;5143864;27;20034;-61
2022/06/27 02:38:42;;;;;;;20.70;14.80;;;16.50;99.90;;;;;;5147464;27;20034;-60
2022/06/27 02:41:14;;;;;;;17.42;13.43;;;16.40;99.90;;;;;;5145207;27;20092;-62
2022/06/27 02:43:41;;;;;;;19.25;14.13;;;16.40;99.90;;;;;;5151300;27;20031;-61
2022/06/27 02:46:08;;;;;;;18.40;13.27;;;16.40;99.90;;;;;;5149980;27;20034;-60
2022/06/27 02:48:36;;;;;;;20.92;14.05;;;16.40;99.90;;;;;;5142947;27;20038;-62
2022/06/27 02:51:05;;;;;;;20.15;14.38;;;16.30;99.90;;;;;;5149411;27;20027;-61
2022/06/27 02:53:44;;;;;;;19.10;12.70;;;16.30;99.90;;;;;;5145714;27;20038;-60
2022/06/27 02:56:11;;;;;;;19.42;13.75;;;16.30;99.90;;;;;;5149684;27;20042;-61
2022/06/27 02:58:44;;;;;;;18.63;13.60;;;16.30;99.90;;;;;;5146288;27;20042;-62
2022/06/27 03:01:12;;;;;;;17.00;13.88;;;16.30;99.90;;;;;;5143111;27;20061;-62
2022/06/27 03:03:41;;;;;;;22.58;14.75;;;16.20;99.90;;;;;;5146916;27;20031;-61
2022/06/27 03:06:07;;;;;;;20.88;14.02;;;16.20;99.90;;;;;;5147153;27;20042;-61
2022/06/27 03:08:38;;;;;;;20.77;14.77;;;16.20;99.90;;;;;;5141855;27;20066;-62
2022/06/27 03:11:04;;;;;;;22.52;16.15;;;16.20;99.90;;;;;;5144095;27;20050;-61
2022/06/27 03:13:29;;;;;;;23.35;16.42;;;16.20;99.90;;;;;;5148161;27;20043;-60
2022/06/27 03:15:55;;;;;;;23.75;16.70;;;16.20;99.90;;;;;;5146479;27;20030;-61
2022/06/27 03:18:20;;;;;;;24.00;16.58;;;16.20;99.90;;;;;;5147968;27;20046;-61
2022/06/27 03:20:46;;;;;;;28.55;18.48;;;16.20;99.90;;;;;;5147930;27;20398;-61
2022/06/27 03:23:12;;;;;;;26.08;17.05;;;16.20;99.90;;;;;;5152072;27;20042;-61
2022/06/27 03:25:38;;;;;;;25.88;17.40;;;16.20;99.90;;;;;;5145163;27;20418;-61
2022/06/27 03:28:04;;;;;;;28.05;17.15;;;16.20;99.90;;;;;;5149902;27;20078;-61
2022/06/27 03:30:30;;;;;;;21.98;15.40;;;16.20;99.90;;;;;;5149417;27;20035;-60
2022/06/27 03:32:55;;;;;;;18.88;12.93;;;16.20;99.90;;;;;;5153295;27;20031;-61
2022/06/27 03:35:21;;;;;;;22.25;13.80;;;16.10;99.90;;;;;;5150054;27;20031;-62
2022/06/27 03:37:47;;;;;;;16.83;12.50;;;16.10;99.90;;;;;;5148786;27;20079;-61
2022/06/27 03:40:12;;;;;;;17.77;11.68;;;16.00;99.90;;;;;;5145272;27;20475;-61
2022/06/27 03:42:38;;;;;;;15.68;11.68;;;16.00;99.90;;;;;;5150441;27;20047;-63
2022/06/27 03:45:04;;;;;;;14.95;10.70;;;15.90;99.90;;;;;;5147387;27;20034;-61
2022/06/27 03:47:30;;;;;;;16.02;10.50;;;15.90;99.90;;;;;;5147723;27;20038;-63
2022/06/27 03:50:01;;;;;;;13.75;10.20;;;15.90;99.90;;;;;;5152304;27;20408;-61
2022/06/27 03:52:28;;;;;;;10.25;8.18;;;15.90;99.90;;;;;;5152561;27;20039;-61
2022/06/27 03:54:54;;;;;;;9.45;5.82;;;15.80;99.90;;;;;;5154313;27;20042;-61
2022/06/27 03:57:20;;;;;;;6.25;5.10;;;15.60;99.90;;;;;;5151153;27;20485;-61
2022/06/27 03:59:45;;;;;;;6.18;4.95;;;15.50;99.90;;;;;;5147065;27;20510;-61
2022/06/27 04:02:11;;;;;;;5.70;4.40;;;15.40;99.90;;;;;;5142008;27;20088;-62
2022/06/27 04:04:38;;;;;;;7.03;4.90;;;15.40;99.90;;;;;;5128152;27;20479;-63
2022/06/27 04:07:03;;;;;;;5.88;4.75;;;15.30;99.90;;;;;;5119831;27;20061;-61
2022/06/27 04:09:30;;;;;;;5.13;4.30;;;15.30;99.90;;;;;;5149969;27;20222;-62
2022/06/27 04:11:55;;;;;;;5.03;3.97;;;15.20;99.90;;;;;;5143676;27;20041;-62
2022/06/27 04:14:21;;;;;;;5.25;4.43;;;15.20;99.90;;;;;;5146219;27;20390;-63
2022/06/27 04:16:47;;;;;;;4.70;4.10;;;15.10;99.90;;;;;;5148651;27;20429;-62
2022/06/27 04:19:12;;;;;;;6.35;4.43;;;15.10;99.90;;;;;;5154995;27;20100;-61
2022/06/27 04:21:38;;;;;;;6.47;4.07;;;15.10;99.90;;;;;;5150643;27;20074;-61
2022/06/27 04:24:04;;;;;;;6.47;4.30;;;15.10;99.90;;;;;;5152706;27;20393;-61
2022/06/27 04:26:30;;;;;;;5.00;3.63;;;15.00;99.90;;;;;;5122281;27;20046;-62
2022/06/27 04:28:56;;;;;;;5.30;4.57;;;15.00;99.90;;;;;;5147280;27;20042;-62
2022/06/27 04:31:21;;;;;;;8.05;4.95;;;15.00;99.90;;;;;;5149574;27;20366;-60
2022/06/27 04:33:47;;;;;;;6.55;4.38;;;14.90;99.90;;;;;;5139473;27;20027;-61
2022/06/27 04:36:13;;;;;;;6.35;4.97;;;15.00;99.90;;;;;;5149770;27;20041;-61
2022/06/27 04:38:38;;;;;;;7.22;5.13;;;14.90;99.90;;;;;;5154084;27;20122;-62
2022/06/27 04:41:05;;;;;;;8.68;5.25;;;14.90;99.90;;;;;;5152031;27;20053;-62
2022/06/27 04:43:34;;;;;;;7.20;5.05;;;14.90;99.90;;;;;;5129466;27;20050;-62
2022/06/27 04:46:05;;;;;;;10.88;5.63;;;15.00;99.90;;;;;;5132259;27;20037;-61
2022/06/27 04:48:33;;;;;;;8.60;5.20;;;15.00;99.90;;;;;;5149693;27;20050;-62
2022/06/27 04:50:59;;;;;;;6.57;4.60;;;15.10;99.90;;;;;;5150714;27;20068;-63
2022/06/27 04:53:25;;;;;;;7.82;4.57;;;15.00;99.90;;;;;;5153521;27;20047;-62
2022/06/27 04:55:51;;;;;;;8.35;4.72;;;15.10;99.90;;;;;;5149375;27;20038;-62
2022/06/27 04:58:17;;;;;;;7.90;4.35;;;15.10;99.90;;;;;;5150211;27;20042;-62
2022/06/27 05:00:43;;;;;;;6.63;4.75;;;15.00;99.90;;;;;;5142352;27;20038;-63
2022/06/27 05:03:09;;;;;;;6.13;4.65;;;15.10;99.90;;;;;;5147171;27;20624;-62
2022/06/27 05:05:35;;;;;;;5.38;4.78;;;15.10;99.90;;;;;;5145828;27;20027;-62
2022/06/27 05:08:01;;;;;;;7.15;4.97;;;15.10;99.90;;;;;;5151350;27;20034;-62
2022/06/27 05:10:28;;;;;;;5.57;4.50;;;15.10;99.90;;;;;;5134305;27;20739;-62
2022/06/27 05:12:54;;;;;;;6.80;5.15;;;15.20;99.90;;;;;;5124714;27;20041;-63
2022/06/27 05:15:20;;;;;;;7.78;4.90;;;15.20;99.90;;;;;;5128007;27;20039;-64
2022/06/27 05:17:45;;;;;;;6.90;4.53;;;15.20;99.90;;;;;;5125698;27;20521;-63
2022/06/27 05:20:12;;;;;;;6.28;4.82;;;15.20;99.90;;;;;;5150997;27;20035;-63
2022/06/27 05:22:38;;;;;;;6.57;4.90;;;15.20;99.90;;;;;;5131615;27;20111;-62
2022/06/27 05:25:04;;;;;;;6.40;4.60;;;15.20;99.90;;;;;;5131141;27;20078;-63
2022/06/27 05:27:30;;;;;;;7.30;5.18;;;15.20;99.90;;;;;;5149459;27;20046;-63
2022/06/27 05:29:56;;;;;;;6.25;4.47;;;15.30;99.90;;;;;;5124311;27;20116;-62
2022/06/27 05:32:22;;;;;;;7.43;5.13;;;15.40;99.90;;;;;;5144940;27;20121;-63
2022/06/27 05:34:48;;;;;;;5.90;4.55;;;15.30;99.90;;;;;;5127994;27;20099;-62
2022/06/27 05:37:14;;;;;;;6.40;5.07;;;15.40;99.90;;;;;;5150472;27;20457;-61
2022/06/27 05:39:42;;;;;;;6.97;4.38;;;15.40;99.90;;;;;;5134867;27;20067;-63
2022/06/27 05:42:08;;;;;;;5.85;4.53;;;15.50;99.90;;;;;;5145593;27;20038;-62
2022/06/27 05:44:34;;;;;;;6.30;4.55;;;15.50;99.90;;;;;;5151512;27;20375;-62
2022/06/27 05:47:00;;;;;;;5.70;4.57;;;15.70;99.90;;;;;;5125699;27;20038;-62
2022/06/27 05:49:26;;;;;;;6.95;4.90;;;15.80;99.90;;;;;;5144306;27;20575;-63
2022/06/27 05:51:54;;;;;;;6.82;4.80;;;15.70;99.90;;;;;;5128885;27;20494;-62
2022/06/27 05:54:21;;;;;;;7.10;5.32;;;15.80;99.90;;;;;;5133122;27;20103;-62
2022/06/27 05:56:47;;;;;;;7.55;5.00;;;15.90;99.90;;;;;;5148403;27;20363;-62
2022/06/27 05:59:13;;;;;;;5.63;5.05;;;15.90;99.90;;;;;;5142945;27;20110;-62
2022/06/27 06:01:39;;;;;;;6.57;5.70;;;16.00;99.90;;;;;;5149572;27;20039;-62
2022/06/27 06:04:05;;;;;;;8.40;5.78;;;16.10;99.90;;;;;;5148684;27;20050;-63
2022/06/27 06:06:30;;;;;;;7.63;5.03;;;16.10;99.90;;;;;;5146768;27;20043;-62
2022/06/27 06:08:57;;;;;;;5.40;4.60;;;16.10;99.90;;;;;;5142974;27;20479;-63
2022/06/27 06:11:23;;;;;;;6.28;5.00;;;16.00;99.90;;;;;;5149432;27;20038;-62
2022/06/27 06:13:49;;;;;;;6.45;4.70;;;16.00;99.90;;;;;;5129606;27;20038;-63
2022/06/27 06:16:19;;;;;;;6.18;4.82;;;15.90;99.90;;;;;;5145765;27;20062;-63
2022/06/27 06:18:55;;;;;;;5.75;4.75;;;15.90;99.90;;;;;;5146345;27;20482;-63
2022/06/27 06:21:21;;;;;;;7.85;5.38;;;15.90;99.90;;;;;;5143672;27;20041;-63
2022/06/27 06:23:49;;;;;;;4.97;4.43;;;15.90;99.90;;;;;;5147184;27;20070;-62
2022/06/27 06:26:16;;;;;;;6.70;4.75;;;16.00;99.90;;;;;;5146211;27;20474;-64
2022/06/27 06:28:46;;;;;;;5.47;4.43;;;16.00;99.90;;;;;;5143854;27;20649;-64
2022/06/27 06:31:15;;;;;;;5.63;4.70;;;16.00;99.90;;;;;;5129041;27;20525;-61
2022/06/27 06:33:41;;;;;;;6.15;4.97;;;15.90;99.90;;;;;;5158916;27;20038;-63
2022/06/27 06:36:08;;;;;;;9.52;4.88;;;15.90;99.90;;;;;;5123097;27;20371;-62
2022/06/27 06:38:33;;;;;;;5.72;4.75;;;15.90;99.90;;;;;;5151441;27;20035;-62
2022/06/27 06:40:59;;;;;;;8.48;4.57;;;16.00;99.90;;;;;;5162008;27;20046;-62
2022/06/27 06:43:25;;;;;;;9.07;4.70;;;15.90;99.90;;;;;;5149667;27;20034;-63
2022/06/27 06:45:51;;;;;;;7.82;5.65;;;16.00;99.90;;;;;;5157286;27;20077;-62
2022/06/27 06:48:17;;;;;;;6.25;4.95;;;16.00;99.90;;;;;;5123224;27;20042;-62
2022/06/27 06:50:43;;;;;;;6.63;4.97;;;16.10;99.90;;;;;;5117922;28;20046;-63
2022/06/27 06:53:08;;;;;;;6.18;5.07;;;16.20;99.90;;;;;;5148726;27;20418;-62
2022/06/27 06:55:34;;;;;;;6.13;4.95;;;16.10;99.90;;;;;;5138412;27;20039;-63
2022/06/27 06:58:00;;;;;;;6.72;5.18;;;16.30;99.90;;;;;;5132243;27;20043;-62
2022/06/27 07:00:26;;;;;;;6.57;5.00;;;16.20;99.90;;;;;;5131696;27;20126;-62
2022/06/27 07:02:53;;;;;;;6.45;4.78;;;16.30;99.90;;;;;;5130493;27;20546;-62
2022/06/27 07:05:20;;;;;;;5.80;4.95;;;16.30;99.90;;;;;;5136516;27;20035;-62
2022/06/27 07:07:50;;;;;;;6.68;4.78;;;16.20;99.90;;;;;;5129941;27;20054;-62
2022/06/27 07:10:18;;;;;;;5.90;4.65;;;16.30;99.90;;;;;;5130547;27;20077;-62
2022/06/27 07:12:45;;;;;;;8.18;5.20;;;16.30;99.90;;;;;;5127604;27;20047;-63
2022/06/27 07:15:11;;;;;;;6.93;5.97;;;16.20;99.90;;;;;;5128543;27;20104;-63
2022/06/27 07:17:45;;;;;;;6.57;5.70;;;16.30;99.90;;;;;;5126793;27;20035;-62
2022/06/27 07:20:12;;;;;;;6.03;5.15;;;16.20;99.90;;;;;;5123625;27;20054;-62
2022/06/27 07:22:39;;;;;;;6.97;5.40;;;16.30;99.90;;;;;;5124834;27;20035;-62
2022/06/27 07:25:05;;;;;;;6.05;5.45;;;16.30;99.90;;;;;;5128376;27;20054;-63
2022/06/27 07:27:32;;;;;;;7.15;5.70;;;16.30;99.90;;;;;;5135485;27;20035;-63
2022/06/27 07:29:59;;;;;;;6.88;5.78;;;16.20;99.90;;;;;;5125575;27;20043;-63
2022/06/27 07:32:25;;;;;;;6.40;5.57;;;16.20;99.90;;;;;;5131518;27;20020;-62
2022/06/27 07:34:51;;;;;;;5.63;4.85;;;16.20;99.90;;;;;;5127439;27;20071;-63
2022/06/27 07:37:18;;;;;;;7.00;5.85;;;16.20;99.90;;;;;;5131423;27;20031;-62
2022/06/27 07:39:44;;;;;;;7.65;5.80;;;16.30;99.90;;;;;;5135530;27;20043;-63
2022/06/27 07:42:09;;;;;;;6.78;5.40;;;16.30;99.90;;;;;;5135801;27;20068;-62
2022/06/27 07:44:35;;;;;;;9.70;6.53;;;16.40;99.90;;;;;;5132145;27;20027;-62
2022/06/27 07:47:03;;;;;;;7.78;6.10;;;16.40;99.90;;;;;;5133244;27;20034;-62
2022/06/27 07:49:30;;;;;;;7.78;4.97;;;16.50;99.90;;;;;;5131737;27;20047;-62
2022/06/27 07:51:56;;;;;;;6.50;4.93;;;16.40;99.90;;;;;;5132774;27;20049;-63
2022/06/27 07:54:21;;;;;;;9.68;6.07;;;16.40;99.90;;;;;;5146592;27;20478;-62
2022/06/27 07:56:47;;;;;;;8.65;5.47;;;16.40;99.90;;;;;;5156300;27;20529;-62
2022/06/27 07:59:14;;;;;;;7.45;5.55;;;16.40;99.90;;;;;;5153769;27;20058;-62
2022/06/27 08:01:40;;;;;;;6.75;5.50;;;16.40;99.90;;;;;;5135836;27;20050;-62
2022/06/27 08:04:07;;;;;;;8.65;5.78;;;16.50;99.90;;;;;;5135634;27;20470;-63
2022/06/27 08:06:33;;;;;;;6.65;5.38;;;16.60;99.90;;;;;;5154742;27;20074;-62
2022/06/27 08:09:04;;;;;;;8.60;6.28;;;16.70;99.90;;;;;;5137335;27;20123;-62
2022/06/27 08:11:36;;;;;;;9.93;6.70;;;16.90;99.90;;;;;;5154888;27;20489;-62
2022/06/27 08:14:06;;;;;;;7.22;6.05;;;17.00;99.90;;;;;;5153748;27;20039;-62
2022/06/27 08:16:33;;;;;;;9.48;7.00;;;17.20;99.90;;;;;;5154552;27;20038;-62
2022/06/27 08:19:00;;;;;;;8.27;6.80;;;17.10;99.90;;;;;;5154473;27;20043;-62
2022/06/27 08:21:27;;;;;;;7.95;6.00;;;17.10;99.90;;;;;;5135523;27;20047;-62
2022/06/27 08:23:58;;;;;;;7.18;5.80;;;17.20;99.90;;;;;;5153375;27;20038;-63
2022/06/27 08:26:25;;;;;;;6.47;5.80;;;17.10;99.90;;;;;;5136825;27;20035;-62
2022/06/27 08:28:52;;;;;;;8.93;6.38;;;17.10;99.90;;;;;;5152386;27;20127;-62
2022/06/27 08:31:18;;;;;;;7.30;6.18;;;17.10;99.90;;;;;;5151174;27;20039;-63
2022/06/27 08:33:45;;;;;;;8.30;6.35;;;17.10;99.90;;;;;;5130366;27;20122;-62
2022/06/27 08:36:12;;;;;;;6.43;5.55;;;17.20;99.90;;;;;;5155947;27;20035;-62
2022/06/27 08:39:01;;;;;;;6.47;5.32;;;17.20;99.90;;;;;;5137717;27;20107;-63
2022/06/27 08:41:25;;;;;;;7.13;5.78;;;17.20;99.90;;;;;;5141022;27;20101;-62
2022/06/27 08:43:55;;;;;;;6.60;5.90;;;17.20;99.90;;;;;;5115753;27;20046;-63
2022/06/27 08:46:22;;;;;;;7.93;6.35;;;17.20;99.90;;;;;;5152743;27;20066;-62
2022/06/27 08:48:50;;;;;;;6.88;6.10;;;17.40;99.90;;;;;;5153893;27;20043;-63
2022/06/27 08:51:16;;;;;;;6.75;5.90;;;17.30;99.90;;;;;;5154558;27;20083;-62
2022/06/27 08:53:42;;;;;;;6.93;5.63;;;17.30;99.90;;;;;;5131220;27;20073;-62
2022/06/27 08:56:10;;;;;;;7.03;5.97;;;17.40;99.90;;;;;;5132017;27;20031;-63
2022/06/27 08:58:37;;;;;;;9.07;6.07;;;17.30;99.90;;;;;;5131844;27;20048;-62
2022/06/27 09:01:04;;;;;;;6.22;5.55;;;17.40;99.90;;;;;;5130860;27;20039;-62
2022/06/27 09:03:30;;;;;;;7.93;7.05;;;17.30;99.90;;;;;;5130966;27;20074;-63
2022/06/27 09:05:59;;;;;;;8.30;5.90;;;17.30;99.90;;;;;;5129038;27;20031;-62
2022/06/27 09:08:31;;;;;;;8.10;6.43;;;17.40;99.90;;;;;;5132731;27;20577;-62
2022/06/27 09:10:57;;;;;;;8.82;6.95;;;17.30;99.90;;;;;;5127708;27;20296;-62
2022/06/27 09:13:24;;;;;;;7.47;6.68;;;17.30;99.90;;;;;;5133382;27;20046;-62
2022/06/27 09:15:54;;;;;;;7.30;6.32;;;17.20;99.90;;;;;;5130372;27;20122;-61
2022/06/27 09:18:29;;;;;;;7.82;6.97;;;17.10;99.90;;;;;;5130380;27;20050;-63
2022/06/27 09:21:01;;;;;;;7.43;6.20;;;17.20;99.90;;;;;;5111662;27;20078;-62
2022/06/27 09:23:50;;;;;;;7.55;6.60;;;17.10;99.90;;;;;;5131871;27;20031;-62
2022/06/27 09:26:21;;;;;;;9.57;7.22;;;17.00;99.90;;;;;;5133336;27;20039;-63
2022/06/27 09:28:53;;;;;;;7.82;6.90;;;17.10;99.90;;;;;;5131517;27;20402;-62
2022/06/27 09:31:30;;;;;;;8.75;6.90;;;16.90;99.90;;;;;;5130825;27;20091;-62
2022/06/27 09:34:19;;;;;;;8.23;7.43;;;17.00;99.90;;;;;;5129637;27;20042;-62
2022/06/27 09:36:50;;;;;;;9.18;6.70;;;17.00;99.90;;;;;;5130721;27;20046;-62
2022/06/27 09:39:21;;;;;;;;;;;16.90;99.90;;;;;;5131116;27;20082;-62
2022/06/27 09:41:58;;;;;;;7.50;6.25;;;16.90;99.90;;;;;;5133352;27;19916;-62
2022/06/27 09:44:27;;;;;;;8.60;6.78;;;16.80;99.90;;;;;;5129612;27;20039;-62
2022/06/27 09:47:20;;;;;;;8.70;6.57;;;16.90;99.90;;;;;;5130959;27;20034;-62
2022/06/27 09:49:49;;;;;;;7.57;6.70;;;17.00;99.90;;;;;;5129314;27;20051;-62
2022/06/27 09:52:18;;;;;;;8.85;6.43;;;17.00;99.90;;;;;;5130807;27;20027;-61
2022/06/27 09:54:47;;;;;;;9.80;6.93;;;17.10;99.90;;;;;;5144465;27;20095;-63
2022/06/27 09:57:14;;;;;;;7.38;6.63;;;17.10;99.90;;;;;;5153023;27;20031;-62
2022/06/27 09:59:40;;;;;;;7.40;6.50;;;17.10;99.90;;;;;;5148831;27;20126;-62
2022/06/27 10:02:07;;;;;;;7.55;6.47;;;17.20;99.90;;;;;;5151260;27;20099;-61
2022/06/27 10:04:35;;;;;;;7.72;6.60;;;17.10;99.90;;;;;;5150896;27;20416;-61
2022/06/27 10:07:02;;;;;;;7.35;6.43;;;17.20;99.90;;;;;;5147646;27;20483;-62
2022/06/27 10:09:29;;;;;;;7.85;7.00;;;17.20;99.90;;;;;;5134594;27;20150;-61
2022/06/27 10:12:20;;;;;;;7.57;6.45;;;17.20;99.90;;;;;;5151045;27;20027;-62
2022/06/27 10:14:46;;;;;;;8.10;6.32;;;17.20;99.90;;;;;;5142002;27;20035;-62
2022/06/27 10:17:15;;;;;;;7.68;6.70;;;17.30;99.90;;;;;;5153313;27;20121;-62
2022/06/27 10:20:12;;;;;;;6.40;5.63;;;17.40;99.90;;;;;;5150767;27;20126;-61
2022/06/27 10:22:38;;;;;;;9.40;6.88;;;17.30;99.90;;;;;;5134241;27;20050;-62
2022/06/27 10:25:26;;;;;;;9.25;7.25;;;17.50;99.90;;;;;;5149690;27;20127;-61
2022/06/27 10:28:09;;;;;;;8.57;6.78;;;17.70;99.90;;;;;;5154205;27;20429;-61
2022/06/27 10:30:37;;;;;;;7.88;6.28;;;17.70;99.90;;;;;;5133677;27;20045;-62
2022/06/27 10:33:21;;;;;;;7.68;6.05;;;17.70;99.90;;;;;;5140439;27;20038;-62
2022/06/27 10:38:32;;;;;;;7.53;6.15;;;17.80;99.90;;;;;;5152273;27;20035;-62
2022/06/27 10:40:59;;;;;;;6.60;5.85;;;17.90;99.90;;;;;;5142897;27;20039;-62
2022/06/27 10:43:43;;;;;;;7.03;6.15;;;17.90;99.90;;;;;;5151004;27;20509;-61
2022/06/27 10:46:28;;;;;;;6.80;6.03;;;17.80;99.90;;;;;;5146590;27;20035;-61
2022/06/27 10:48:58;;;;;;;6.40;5.70;;;17.90;99.90;;;;;;5146369;27;20790;-62
2022/06/27 10:51:29;;;;;;;6.78;5.95;;;17.90;99.90;;;;;;5148597;27;20106;-62
2022/06/27 10:54:04;;;;;;;5.88;5.15;;;18.00;99.90;;;;;;5139575;27;20182;-61
2022/06/27 10:56:34;;;;;;;7.38;5.72;;;18.00;99.90;;;;;;5123344;28;20039;-62
2022/06/27 10:59:01;;;;;;;5.22;4.72;;;18.10;99.90;;;;;;5129359;28;20476;-62
2022/06/27 11:01:28;;;;;;;7.63;5.28;;;18.10;99.90;;;;;;5115507;28;20040;-62
2022/06/27 11:03:54;;;;;;;6.05;5.45;;;18.10;99.90;;;;;;5125363;27;20054;-62
2022/06/27 11:06:19;;;;;;;8.18;5.60;;;18.20;99.90;;;;;;5133057;27;20035;-61
2022/06/27 11:08:47;;;;;;;5.93;5.32;;;18.20;99.90;;;;;;5134615;27;20047;-61
2022/06/27 11:11:27;;;;;;;5.72;5.10;;;18.40;99.90;;;;;;5128301;27;20043;-61
2022/06/27 11:13:55;;;;;;;6.50;4.67;;;18.40;99.90;;;;;;5130768;28;20088;-61
2022/06/27 11:16:32;;;;;;;4.68;4.15;;;18.40;99.90;;;;;;5122983;27;20307;-62
2022/06/27 11:20:04;;;;;;;5.07;4.05;;;18.40;99.90;;;;;;5119033;28;20039;-61
2022/06/27 11:21:54;;;;;;;4.60;3.60;;;18.50;99.90;;;;;;5113810;28;20057;-62
2022/06/27 11:24:20;;;;;;;5.47;4.22;;;18.60;99.90;;;;;;5123830;28;20366;-61
2022/06/27 11:26:50;;;;;;;4.35;3.95;;;18.60;99.90;;;;;;5120943;28;20376;-62
2022/06/27 11:32:07;;;;;;;4.88;4.38;;;18.60;99.90;;;;;;5128438;28;20047;-61
2022/06/27 11:34:36;;;;;;;5.38;4.68;;;18.50;99.90;;;;;;5126675;27;20056;-61
2022/06/27 11:37:11;;;;;;;4.57;4.18;;;18.60;99.90;;;;;;5123591;27;20410;-62
2022/06/27 11:39:37;;;;;;;6.38;4.65;;;18.50;99.90;;;;;;5128058;28;20065;-62
2022/06/27 11:42:11;;;;;;;5.07;4.57;;;18.50;99.90;;;;;;5113880;28;20532;-61
2022/06/27 11:44:39;;;;;;;6.22;4.30;;;18.60;99.90;;;;;;5101136;27;20028;-61
2022/06/27 11:47:08;;;;;;;4.88;4.25;;;18.70;99.90;;;;;;5123627;27;20588;-61
2022/06/27 11:49:40;;;;;;;5.43;4.40;;;18.70;99.90;;;;;;5125849;27;20039;-61
2022/06/27 11:52:10;;;;;;;4.65;3.92;;;18.80;99.90;;;;;;5119255;27;20045;-62
2022/06/27 11:54:38;;;;;;;4.22;3.83;;;18.90;99.90;;;;;;5140851;27;20120;-61
2022/06/27 11:57:15;;;;;;;6.72;4.55;;;18.80;99.90;;;;;;5130782;27;20038;-61
2022/06/27 11:59:51;;;;;;;4.45;3.70;;;18.80;99.90;;;;;;5126723;27;20041;-61
2022/06/27 12:02:28;;;;;;;4.20;3.63;;;18.70;99.90;;;;;;5148593;27;20046;-61
2022/06/27 12:05:06;;;;;;;3.53;3.22;;;18.70;99.90;;;;;;5132576;27;20039;-61
2022/06/27 12:07:48;;;;;;;4.13;3.40;;;18.70;99.90;;;;;;5140728;27;20045;-62
2022/06/27 12:10:14;;;;;;;4.13;3.00;;;18.70;99.90;;;;;;5146684;27;20127;-61
2022/06/27 12:12:45;;;;;;;4.05;3.40;;;18.70;99.90;;;;;;5146692;27;20042;-62
2022/06/27 12:15:20;;;;;;;3.90;3.50;;;18.70;99.90;;;;;;5151526;27;20034;-61
2022/06/27 12:17:46;;;;;;;4.28;3.10;;;18.70;99.90;;;;;;5142040;27;20043;-62
2022/06/27 12:20:11;;;;;;;3.90;3.50;;;18.70;99.90;;;;;;5124359;27;20618;-61
2022/06/27 12:22:37;;;;;;;3.67;3.38;;;18.70;99.90;;;;;;5146014;27;20117;-61
2022/06/27 12:25:03;;;;;;;3.65;3.33;;;18.70;99.90;;;;;;5150029;27;20072;-62
2022/06/27 12:27:29;;;;;;;5.57;4.65;;;18.60;99.90;;;;;;5149294;27;20046;-63
2022/06/27 12:29:55;;;;;;;5.53;3.47;;;18.60;99.90;;;;;;5147332;27;20038;-61
2022/06/27 12:32:20;;;;;;;4.28;3.60;;;18.60;99.90;;;;;;5146155;27;20172;-61
2022/06/27 12:34:48;;;;;;;4.65;4.15;;;18.70;99.90;;;;;;5148031;27;20117;-62
2022/06/27 12:37:14;;;;;;;4.63;3.60;;;18.60;99.90;;;;;;5145155;27;20047;-61
2022/06/27 12:39:39;;;;;;;3.75;3.45;;;18.60;99.90;;;;;;5134125;27;20037;-62
2022/06/27 12:42:05;;;;;;;5.13;3.50;;;18.50;99.90;;;;;;5130643;27;20122;-62
2022/06/27 12:44:31;;;;;;;4.13;3.33;;;18.40;99.90;;;;;;5149273;27;20039;-63
2022/06/27 12:46:56;;;;;;;4.13;3.70;;;18.20;99.90;;;;;;5122003;27;20042;-61
2022/06/27 12:49:22;;;;;;;4.55;3.80;;;18.10;99.90;;;;;;5145383;27;20038;-61
2022/06/27 12:51:49;;;;;;;5.85;3.90;;;18.00;99.90;;;;;;5128042;27;20047;-62